Terminal Aerodrome Forecast
Issued by NWS Wakefield, VA

Home | Current Version | Previous Version | Text Only | Print | Product List | Glossary On
Versions: 1 2 3 4 5 6 7 8 9 10 11 12 13
325
FTUS41 KAKQ 221137
TAFSBY
TAF
KSBY 221137Z 2212/2312 21010KT P6SM SCT250
     FM221700 21012G18KT P6SM SCT050
     FM230000 19010KT P6SM SCT200=

USA.gov is the U.S. government's official web portal to all federal, state and local government web resources and services.